Time;durP1;ratioP1;P1;durP2;ratioP2;P2;SDS_P1;SDS_P2;PMS_P1;PMS_P2;Temp;Humidity;BMP_temperature;BMP_pressure;BME280_temperature;BME280_humidity;BME280_pressure;Samples;Min_cycle;Max_cycle;Signal;HPM_P1;HPM_P2
2022/05/28 00:01:15;;;;;;;20.40;4.63;;;;;;;9.44;74.53;102043.59;5057879;28;20473;-80
2022/05/28 00:03:45;;;;;;;16.83;4.28;;;;;;;9.47;74.71;102034.53;5054587;28;20040;-80
2022/05/28 00:06:16;;;;;;;20.00;4.22;;;;;;;9.41;74.79;102033.91;5060619;28;20036;-80
2022/05/28 00:08:42;;;;;;;15.98;3.83;;;;;;;9.39;74.01;102025.03;5052575;28;20039;-80
2022/05/28 00:11:20;;;;;;;16.85;4.18;;;;;;;9.41;74.67;102028.53;5054296;28;20412;-80
2022/05/28 00:13:46;;;;;;;13.77;3.95;;;;;;;9.37;74.99;102021.56;5060566;28;20024;-80
2022/05/28 00:16:13;;;;;;;19.52;4.53;;;;;;;9.42;74.92;102019.50;5067908;28;20028;-80
2022/05/28 00:18:40;;;;;;;17.60;4.40;;;;;;;9.48;74.15;102017.50;5072296;28;20024;-80
2022/05/28 00:21:06;;;;;;;15.00;3.80;;;;;;;9.54;74.75;102017.19;5059689;28;20377;-80
2022/05/28 00:23:31;;;;;;;20.00;5.25;;;;;;;9.53;74.66;102015.44;5059293;28;20021;-80
2022/05/28 00:25:57;;;;;;;16.42;4.18;;;;;;;9.60;74.87;102006.13;5055093;28;20120;-80
2022/05/28 00:28:22;;;;;;;17.15;3.95;;;;;;;9.64;74.83;102007.72;5054618;28;20021;-80
2022/05/28 00:30:48;;;;;;;22.60;4.50;;;;;;;9.72;74.47;102002.84;5063975;28;20033;-80
2022/05/28 00:33:13;;;;;;;18.08;4.45;;;;;;;9.76;74.66;102014.25;5067949;28;20028;-80
2022/05/28 00:35:39;;;;;;;19.38;4.07;;;;;;;9.74;75.58;102010.81;5056779;28;20496;-80
2022/05/28 00:38:04;;;;;;;20.48;4.65;;;;;;;9.76;74.52;102007.06;5052789;28;20049;-80
2022/05/28 00:40:30;;;;;;;17.75;4.35;;;;;;;9.83;75.89;102004.94;5059569;28;20383;-80
2022/05/28 00:43:00;;;;;;;18.15;4.22;;;;;;;9.87;75.58;102003.84;5049590;28;20043;-80
2022/05/28 00:45:25;;;;;;;22.08;5.03;;;;;;;9.90;74.52;102013.56;5084811;28;20027;-80
2022/05/28 00:47:55;;;;;;;18.00;4.88;;;;;;;9.97;74.45;102007.78;5073177;28;20039;-80
2022/05/28 00:50:21;;;;;;;17.83;4.28;;;;;;;10.01;74.52;102011.16;5086432;28;20773;-80
2022/05/28 00:52:46;;;;;;;18.10;4.50;;;;;;;10.06;74.37;102005.56;5055760;28;20094;-80
2022/05/28 00:55:14;;;;;;;17.88;5.07;;;;;;;10.06;73.75;102003.75;5065918;28;20032;-80
2022/05/28 00:57:40;;;;;;;16.60;4.35;;;;;;;10.08;73.96;102009.91;5063835;28;20029;-80
2022/05/28 01:00:12;;;;;;;20.40;5.03;;;;;;;10.06;74.07;101998.38;5067357;28;20430;-80
2022/05/28 01:03:09;;;;;;;20.42;5.30;;;;;;;10.09;73.44;102011.66;5060277;28;20111;-80
2022/05/28 01:05:34;;;;;;;18.23;5.15;;;;;;;10.08;73.31;102001.84;5058520;28;20024;-80
2022/05/28 01:08:08;;;;;;;20.40;5.03;;;;;;;10.06;73.85;101998.38;5051962;28;20039;-80
2022/05/28 01:11:02;;;;;;;16.25;4.78;;;;;;;10.09;73.30;101995.53;5050020;28;20051;-80
2022/05/28 01:13:36;;;;;;;16.58;4.70;;;;;;;10.14;73.43;101995.28;5057406;28;20064;-81
2022/05/28 01:16:09;;;;;;;27.30;6.15;;;;;;;10.13;73.48;101986.38;5050609;28;20029;-81
2022/05/28 01:18:43;;;;;;;21.30;5.15;;;;;;;10.15;72.87;101989.81;5060907;28;20445;-80
2022/05/28 01:21:15;;;;;;;19.77;5.47;;;;;;;10.15;73.51;101987.13;5059265;28;20028;-80
2022/05/28 01:23:57;;;;;;;16.92;5.03;;;;;;;10.13;73.51;101989.06;5045065;28;20033;-80
2022/05/28 01:26:50;;;;;;;20.77;4.53;;;;;;;10.13;73.65;101982.78;5050510;28;20033;-80
2022/05/28 01:29:18;;;;;;;19.85;5.40;;;;;;;10.11;72.89;101987.38;5054579;28;20070;-80
2022/05/28 01:31:46;;;;;;;21.90;5.90;;;;;;;10.11;72.40;101988.25;5066034;28;20032;-80
2022/05/28 01:34:14;;;;;;;18.23;5.30;;;;;;;10.12;73.34;101984.63;5057610;28;20035;-80
2022/05/28 01:36:41;;;;;;;18.73;5.13;;;;;;;10.13;73.36;101986.38;5053599;28;20053;-80
2022/05/28 01:39:07;;;;;;;18.92;5.25;;;;;;;10.08;73.73;101984.88;5055979;28;20104;-80
2022/05/28 01:41:35;;;;;;;21.55;5.60;;;;;;;10.10;73.07;101978.47;5066288;28;20029;-80
2022/05/28 01:44:02;;;;;;;17.92;5.82;;;;;;;10.08;73.12;101974.97;5069983;28;20047;-80
2022/05/28 01:46:29;;;;;;;21.45;5.65;;;;;;;10.07;73.07;101969.69;5060415;28;20437;-80
2022/05/28 01:48:55;;;;;;;17.45;5.32;;;;;;;10.04;73.75;101972.53;5057261;28;20025;-80
2022/05/28 01:51:37;;;;;;;23.95;6.20;;;;;;;10.04;73.24;101978.78;5058003;28;20550;-80
2022/05/28 01:54:07;;;;;;;18.13;5.03;;;;;;;10.06;73.68;101976.00;5054331;28;20488;-80
2022/05/28 01:56:32;;;;;;;20.02;5.43;;;;;;;10.09;73.71;101975.88;5053658;28;20427;-80
2022/05/28 01:58:58;;;;;;;24.27;4.90;;;;;;;10.12;73.71;101978.38;5047131;28;20098;-80
2022/05/28 02:01:23;;;;;;;20.33;5.00;;;;;;;10.20;73.47;101981.50;5058959;28;20033;-80
2022/05/28 02:03:52;;;;;;;17.27;4.65;;;;;;;10.19;74.09;101971.75;5055509;28;20025;-80
2022/05/28 02:06:18;;;;;;;17.50;5.07;;;;;;;10.17;73.65;101978.13;5081406;28;20550;-80
2022/05/28 02:08:46;;;;;;;19.13;5.13;;;;;;;10.14;73.63;101974.66;5070191;28;20028;-80
2022/05/28 02:11:15;;;;;;;19.10;4.75;;;;;;;10.14;74.12;101985.41;5067604;28;20045;-80
2022/05/28 02:14:13;;;;;;;21.80;5.22;;;;;;;10.18;73.78;101979.88;5052110;28;20121;-80
2022/05/28 02:16:57;;;;;;;20.90;4.80;;;;;;;10.17;74.42;101988.88;5059914;28;20086;-80
2022/05/28 02:19:22;;;;;;;18.65;5.10;;;;;;;10.17;74.13;101980.81;5071992;28;20081;-80
2022/05/28 02:22:00;;;;;;;19.85;5.25;;;;;;;10.16;74.34;101979.94;5062440;28;20475;-80
2022/05/28 02:24:35;;;;;;;21.73;4.82;;;;;;;10.08;74.67;101983.03;5068373;28;20040;-80
2022/05/28 02:27:13;;;;;;;18.40;4.70;;;;;;;10.05;74.53;101976.97;5059829;28;20581;-80
2022/05/28 02:29:39;;;;;;;21.83;5.38;;;;;;;9.96;74.62;101976.50;5073192;28;20436;-80
2022/05/28 02:32:16;;;;;;;15.55;4.65;;;;;;;9.93;75.26;101978.50;5062943;28;20035;-80
2022/05/28 02:34:45;;;;;;;20.63;5.40;;;;;;;9.88;75.26;101967.13;5061724;28;20060;-80
2022/05/28 02:37:11;;;;;;;19.98;5.00;;;;;;;9.84;75.63;101969.09;5064238;28;20083;-80
2022/05/28 02:39:37;;;;;;;16.08;4.88;;;;;;;9.83;75.50;101963.81;5063273;28;20107;-80
2022/05/28 02:42:02;;;;;;;16.20;4.75;;;;;;;9.82;75.83;101972.81;5054759;28;20127;-80
2022/05/28 02:44:28;;;;;;;21.40;5.32;;;;;;;9.80;75.61;101963.00;5050308;28;20550;-80
2022/05/28 02:46:53;;;;;;;18.48;4.65;;;;;;;9.80;76.39;101960.31;5056413;28;20102;-80
2022/05/28 02:49:18;;;;;;;21.83;5.90;;;;;;;9.79;76.29;101953.25;5069080;28;20141;-80
2022/05/28 02:51:44;;;;;;;20.88;4.95;;;;;;;9.76;76.87;101961.44;5064465;28;20484;-80
2022/05/28 02:54:09;;;;;;;15.05;4.82;;;;;;;9.78;76.83;101951.50;5055605;28;20488;-80
2022/05/28 02:56:35;;;;;;;20.75;5.38;;;;;;;9.79;77.04;101955.94;5056667;28;20045;-80
2022/05/28 02:59:00;;;;;;;14.85;4.75;;;;;;;9.76;77.28;101948.00;5059964;28;20013;-80
2022/05/28 03:01:32;;;;;;;18.88;4.72;;;;;;;9.74;77.37;101952.59;5067020;28;20025;-80
2022/05/28 03:03:57;;;;;;;17.45;4.63;;;;;;;9.75;77.29;101954.34;5070334;28;20059;-80
2022/05/28 03:06:23;;;;;;;21.30;5.10;;;;;;;9.76;77.68;101948.00;5059908;28;20086;-81
2022/05/28 03:08:49;;;;;;;18.83;4.53;;;;;;;9.76;77.90;101948.00;5068810;28;20020;-80
2022/05/28 03:11:14;;;;;;;16.48;4.80;;;;;;;9.80;78.16;101944.22;5068393;28;20045;-80
2022/05/28 03:13:41;;;;;;;16.20;4.25;;;;;;;9.77;78.36;101947.06;5061607;28;20366;-80
2022/05/28 03:16:07;;;;;;;18.20;4.43;;;;;;;9.86;78.30;101958.28;5055020;28;20052;-80
2022/05/28 03:18:33;;;;;;;15.82;4.30;;;;;;;9.92;78.30;101947.22;5067785;28;20457;-80
2022/05/28 03:20:58;;;;;;;22.10;4.45;;;;;;;9.96;78.09;101948.78;5061044;28;20063;-80
2022/05/28 03:23:23;;;;;;;19.70;4.78;;;;;;;9.97;78.39;101946.03;5070133;28;20360;-80
2022/05/28 03:25:48;;;;;;;18.90;4.43;;;;;;;9.95;78.38;101952.41;5059998;28;20085;-80
2022/05/28 03:28:14;;;;;;;18.77;4.82;;;;;;;9.94;78.43;101958.72;5066399;28;20035;-80
2022/05/28 03:30:39;;;;;;;16.25;4.80;;;;;;;9.88;78.32;101956.38;5067417;28;20468;-80
2022/05/28 03:33:05;;;;;;;18.00;4.95;;;;;;;9.85;78.48;101959.22;5068881;28;20028;-80
2022/05/28 03:35:30;;;;;;;15.90;4.15;;;;;;;9.77;78.63;101955.13;5063918;28;20384;-80
2022/05/28 03:37:55;;;;;;;16.17;4.50;;;;;;;9.71;78.88;101957.28;5062254;28;20054;-80
2022/05/28 03:40:20;;;;;;;20.63;4.97;;;;;;;9.66;79.10;101953.94;5062555;28;20035;-80
2022/05/28 03:42:46;;;;;;;15.77;4.57;;;;;;;9.62;78.62;101961.31;5050146;28;20396;-80
2022/05/28 03:45:11;;;;;;;18.85;4.80;;;;;;;9.55;79.18;101966.09;5064963;28;20047;-80
2022/05/28 03:47:37;;;;;;;18.95;4.25;;;;;;;9.48;79.59;101953.94;5067529;28;20023;-80
2022/05/28 03:50:04;;;;;;;21.45;5.00;;;;;;;9.47;80.09;101957.56;5087239;28;20111;-80
2022/05/28 03:52:29;;;;;;;14.90;3.72;;;;;;;9.43;80.00;101956.00;5054085;28;20122;-80
2022/05/28 03:54:55;;;;;;;17.02;3.95;;;;;;;9.40;79.94;101966.88;5040183;28;20060;-80
2022/05/28 03:57:27;;;;;;;15.55;4.78;;;;;;;9.40;80.22;101961.50;5060885;28;20033;-80
2022/05/28 03:59:53;;;;;;;14.43;4.18;;;;;;;9.38;80.58;101969.63;5062513;28;20021;-80
2022/05/28 04:02:19;;;;;;;17.55;4.43;;;;;;;9.40;81.04;101973.13;5060129;28;20032;-80
2022/05/28 04:04:44;;;;;;;14.23;4.10;;;;;;;9.45;81.19;101976.44;5059793;28;20028;-80
2022/05/28 04:07:11;;;;;;;16.35;4.07;;;;;;;9.45;81.29;101979.09;5073664;28;20447;-80
2022/05/28 04:09:36;;;;;;;15.65;4.45;;;;;;;9.46;81.36;101980.00;5054316;28;20491;-80
2022/05/28 04:12:02;;;;;;;20.27;5.05;;;;;;;9.47;81.61;101978.16;5051346;28;20048;-80
2022/05/28 04:14:27;;;;;;;13.30;4.00;;;;;;;9.45;81.72;101975.56;5057362;28;20036;-80
2022/05/28 04:16:52;;;;;;;21.50;4.97;;;;;;;9.49;81.76;101973.59;5058600;28;20033;-80
2022/05/28 04:19:18;;;;;;;18.67;5.03;;;;;;;9.49;81.91;101974.47;5059795;28;20115;-81
2022/05/28 04:21:43;;;;;;;15.82;4.47;;;;;;;9.51;81.90;101971.72;5063999;28;20470;-80
2022/05/28 04:24:08;;;;;;;16.88;4.28;;;;;;;9.53;81.91;101977.84;5057688;28;20487;-80
2022/05/28 04:26:34;;;;;;;18.95;5.05;;;;;;;9.60;82.17;101973.91;5056835;28;20056;-80
2022/05/28 04:28:59;;;;;;;18.67;4.40;;;;;;;9.68;81.96;101976.19;5058197;28;20035;-80
2022/05/28 04:31:24;;;;;;;14.63;4.47;;;;;;;9.76;81.94;101980.22;5049932;28;20506;-80
2022/05/28 04:33:49;;;;;;;17.40;3.88;;;;;;;9.81;82.12;101982.69;5059092;28;20051;-80
2022/05/28 04:36:15;;;;;;;12.85;3.58;;;;;;;9.86;82.41;101983.31;5064949;28;20028;-81
2022/05/28 04:38:41;;;;;;;17.60;4.22;;;;;;;9.93;82.29;101986.56;5057392;28;20381;-79
2022/05/28 04:41:06;;;;;;;18.13;4.55;;;;;;;9.99;81.65;101983.53;5054943;28;20040;-80
2022/05/28 04:43:32;;;;;;;17.33;4.80;;;;;;;10.06;82.30;101982.28;5057126;28;20035;-80
2022/05/28 04:45:57;;;;;;;15.88;4.35;;;;;;;10.14;82.00;101990.78;5058778;28;20042;-80
2022/05/28 04:48:23;;;;;;;20.05;4.50;;;;;;;10.18;82.22;101987.94;5065484;28;20380;-80
2022/05/28 04:50:48;;;;;;;17.65;4.30;;;;;;;10.23;81.74;101997.47;5067441;28;20044;-80
2022/05/28 04:53:13;;;;;;;19.23;4.22;;;;;;;10.28;82.50;101991.88;5067372;28;20543;-80
2022/05/28 04:55:39;;;;;;;15.52;4.05;;;;;;;10.27;82.92;101995.50;5059925;28;20033;-80
2022/05/28 04:58:05;;;;;;;17.75;4.45;;;;;;;10.26;83.17;101993.75;5062041;28;20037;-80
2022/05/28 05:00:30;;;;;;;17.98;4.38;;;;;;;10.30;82.95;102000.72;5054276;28;20052;-80
2022/05/28 05:02:56;;;;;;;20.10;4.47;;;;;;;10.34;82.35;101998.75;5058558;28;20472;-80
2022/05/28 05:05:21;;;;;;;19.52;4.72;;;;;;;10.41;82.68;102005.53;5080511;28;20033;-80
2022/05/28 05:07:47;;;;;;;22.73;5.47;;;;;;;10.44;82.62;102002.66;5054344;28;20253;-80
2022/05/28 05:10:12;;;;;;;18.30;4.72;;;;;;;10.46;83.60;102004.34;5060731;28;20033;-80
2022/05/28 05:12:38;;;;;;;19.40;4.75;;;;;;;10.56;83.10;102006.53;5059092;28;20028;-80
2022/05/28 05:15:04;;;;;;;17.70;4.63;;;;;;;10.61;83.22;102007.13;5055794;28;20597;-80
2022/05/28 05:17:30;;;;;;;22.58;4.22;;;;;;;10.65;82.55;102006.03;5046192;28;20132;-80
2022/05/28 05:19:55;;;;;;;20.13;4.80;;;;;;;10.74;82.44;102018.09;5070533;28;20107;-81
2022/05/28 05:22:21;;;;;;;17.25;4.15;;;;;;;10.78;83.81;102011.59;5068047;28;20033;-81
2022/05/28 05:24:46;;;;;;;14.80;4.28;;;;;;;10.86;82.37;102013.84;5056785;28;20074;-81
2022/05/28 05:27:12;;;;;;;19.83;4.43;;;;;;;10.94;82.18;102015.16;5053355;28;20024;-81
2022/05/28 05:29:38;;;;;;;16.08;3.90;;;;;;;10.99;81.67;102018.44;5060123;28;20017;-81
2022/05/28 05:32:04;;;;;;;17.63;3.63;;;;;;;11.04;81.53;102015.50;5050510;28;20036;-81
2022/05/28 05:34:29;;;;;;;12.95;3.80;;;;;;;11.09;80.63;102018.78;5058230;28;20032;-80
2022/05/28 05:36:54;;;;;;;15.23;4.05;;;;;;;11.15;82.30;102013.06;5066717;28;20028;-81
2022/05/28 05:39:20;;;;;;;14.13;3.58;;;;;;;11.19;80.68;102013.78;5057394;28;20068;-81
2022/05/28 05:41:45;;;;;;;14.25;3.50;;;;;;;11.26;80.65;102019.66;5057675;28;20059;-81
2022/05/28 05:44:11;;;;;;;14.63;3.15;;;;;;;11.27;82.49;102024.09;5052888;28;20471;-81
2022/05/28 05:46:40;;;;;;;13.38;2.90;;;;;;;11.32;81.21;102025.56;5065955;28;20028;-81
2022/05/28 05:49:06;;;;;;;14.02;3.00;;;;;;;11.39;80.08;102027.88;5061853;28;20079;-81
2022/05/28 05:51:31;;;;;;;16.15;3.58;;;;;;;11.43;80.23;102027.63;5064704;28;20029;-81
2022/05/28 05:53:56;;;;;;;13.38;3.15;;;;;;;11.49;79.13;102029.09;5050388;28;20401;-82
2022/05/28 05:56:22;;;;;;;14.00;2.67;;;;;;;11.53;76.57;102034.19;5055096;28;20058;-81
2022/05/28 05:58:47;;;;;;;15.02;3.10;;;;;;;11.62;78.75;102034.63;5061323;28;20434;-81
2022/05/28 06:01:13;;;;;;;14.95;2.92;;;;;;;11.68;78.24;102026.19;5066755;28;20333;-82
2022/05/28 06:03:44;;;;;;;9.68;2.40;;;;;;;11.72;76.83;102035.81;5066303;28;20032;-81
2022/05/28 06:06:12;;;;;;;9.30;2.83;;;;;;;11.80;78.21;102035.34;5056887;28;20098;-81
2022/05/28 06:08:37;;;;;;;9.27;2.30;;;;;;;11.92;77.27;102031.06;5059094;28;20400;-81
2022/05/28 06:11:03;;;;;;;7.57;2.03;;;;;;;12.02;77.03;102035.84;5050077;28;20157;-81
2022/05/28 06:13:28;;;;;;;9.93;2.33;;;;;;;12.09;74.29;102038.16;5078260;28;20032;-81
2022/05/28 06:15:53;;;;;;;15.18;3.03;;;;;;;12.13;74.93;102043.28;5055956;28;20085;-81
2022/05/28 06:18:19;;;;;;;13.77;2.75;;;;;;;12.17;73.47;102036.75;5061209;28;20121;-82
2022/05/28 06:20:44;;;;;;;14.70;2.65;;;;;;;12.23;73.28;102038.19;5061598;28;20044;-81
2022/05/28 06:23:09;;;;;;;13.50;2.42;;;;;;;12.28;73.76;102040.59;5057631;28;20029;-81
2022/05/28 06:25:37;;;;;;;11.90;3.10;;;;;;;12.34;73.76;102045.63;5055249;28;20031;-81
2022/05/28 06:28:02;;;;;;;6.10;1.80;;;;;;;12.40;74.22;102042.53;5048924;28;20029;-81
2022/05/28 06:30:27;;;;;;;13.77;2.75;;;;;;;12.46;73.83;102039.47;5052953;28;20083;-81
2022/05/28 06:32:53;;;;;;;8.45;1.95;;;;;;;12.54;71.13;102044.38;5053850;28;20028;-82
2022/05/28 06:35:18;;;;;;;11.60;1.85;;;;;;;12.55;69.46;102046.13;5054901;28;20028;-81
2022/05/28 06:37:43;;;;;;;6.53;2.00;;;;;;;12.55;69.90;102043.44;5068779;28;20032;-82
2022/05/28 06:40:09;;;;;;;10.82;2.53;;;;;;;12.59;71.04;102043.13;5072445;28;20546;-82
2022/05/28 06:42:34;;;;;;;13.35;2.75;;;;;;;12.62;69.96;102051.97;5055649;28;20115;-81
2022/05/28 06:45:00;;;;;;;11.90;2.40;;;;;;;12.64;68.86;102050.94;5056279;28;20065;-81
2022/05/28 06:47:26;;;;;;;13.63;2.38;;;;;;;12.63;67.85;102059.13;5066386;28;20441;-81
2022/05/28 06:52:36;;;;;;;9.65;2.03;;;;;;;12.61;66.76;102059.22;5054384;28;20392;-82
2022/05/28 06:55:02;;;;;;;11.93;2.38;;;;;;;12.58;67.33;102056.72;5056886;28;20028;-81
2022/05/28 06:57:28;;;;;;;10.07;2.10;;;;;;;12.55;65.55;102063.16;5041360;28;20037;-81
2022/05/28 06:59:53;;;;;;;12.15;2.40;;;;;;;12.53;64.82;102059.72;5061887;28;20492;-81
2022/05/28 07:02:18;;;;;;;20.23;2.70;;;;;;;12.58;65.90;102062.97;5058841;28;20028;-82
2022/05/28 07:04:45;;;;;;;5.50;2.08;;;;;;;12.66;65.42;102065.19;5054223;28;20060;-82
2022/05/28 07:07:10;;;;;;;7.43;2.20;;;;;;;12.75;63.98;102063.72;5080170;28;20021;-81
2022/05/28 07:09:36;;;;;;;9.20;2.38;;;;;;;12.86;67.21;102072.03;5055995;28;20514;-82
2022/05/28 07:12:01;;;;;;;12.40;2.30;;;;;;;12.93;63.57;102069.81;5062048;28;20131;-81
2022/05/28 07:14:26;;;;;;;12.60;2.63;;;;;;;12.91;63.27;102069.03;5057319;28;20033;-82
2022/05/28 07:16:51;;;;;;;12.32;2.85;;;;;;;12.91;62.34;102063.63;5057732;28;20028;-81
2022/05/28 07:19:16;;;;;;;14.60;2.50;;;;;;;12.89;62.76;102071.81;5055971;28;20043;-81
2022/05/28 07:21:42;;;;;;;7.50;2.03;;;;;;;12.90;62.24;102067.31;5060651;28;20063;-81
2022/05/28 07:24:07;;;;;;;8.48;2.10;;;;;;;12.93;62.51;102067.97;5061793;28;20442;-81
2022/05/28 07:26:32;;;;;;;6.25;1.90;;;;;;;12.97;62.67;102073.16;5054523;28;20029;-81
2022/05/28 07:28:58;;;;;;;8.63;1.90;;;;;;;12.96;63.93;102071.41;5061150;28;20028;-81
2022/05/28 07:31:23;;;;;;;9.05;2.00;;;;;;;12.93;63.56;102070.66;5056802;28;20494;-81
2022/05/28 07:33:49;;;;;;;12.23;2.40;;;;;;;12.94;62.60;102068.81;5055633;28;20028;-81
2022/05/28 07:36:21;;;;;;;10.15;1.83;;;;;;;12.97;62.71;102065.06;5059767;28;20021;-81
2022/05/28 07:38:47;;;;;;;6.88;2.20;;;;;;;13.00;63.08;102067.56;5063908;28;20031;-81
2022/05/28 07:41:17;;;;;;;9.10;2.38;;;;;;;13.00;60.59;102062.16;5070184;28;20032;-81
2022/05/28 07:43:43;;;;;;;9.88;2.17;;;;;;;13.04;61.36;102074.50;5054828;28;20066;-81
2022/05/28 07:46:14;;;;;;;14.60;2.40;;;;;;;13.08;61.15;102070.66;5056810;28;20032;-81
2022/05/28 07:48:40;;;;;;;8.77;1.67;;;;;;;13.13;61.19;102060.41;5069566;28;20059;-81
2022/05/28 07:51:05;;;;;;;11.35;2.30;;;;;;;13.19;60.55;102078.94;5079446;28;20114;-81
2022/05/28 07:53:30;;;;;;;7.30;2.67;;;;;;;13.28;61.87;102064.81;5068379;28;20029;-81
2022/05/28 07:55:55;;;;;;;10.50;2.55;;;;;;;13.33;61.47;102069.91;5070995;28;20024;-81
2022/05/28 07:58:21;;;;;;;12.73;2.30;;;;;;;13.35;62.28;102067.16;5070077;28;20018;-82
2022/05/28 08:00:48;;;;;;;8.00;2.13;;;;;;;13.37;62.10;102067.94;5065647;28;20013;-82
2022/05/28 08:03:15;;;;;;;11.45;2.53;;;;;;;13.36;60.43;102075.16;5071521;28;20020;-82
2022/05/28 08:05:44;;;;;;;9.73;2.58;;;;;;;13.35;61.20;102070.69;5070185;28;20074;-82
2022/05/28 08:08:10;;;;;;;15.38;2.45;;;;;;;13.36;60.94;102068.88;5071323;28;20032;-81
2022/05/28 08:10:36;;;;;;;7.85;1.90;;;;;;;13.36;60.79;102069.75;5068478;28;20052;-81
2022/05/28 08:13:04;;;;;;;7.22;2.17;;;;;;;13.27;58.87;102065.78;5067490;28;20032;-81
2022/05/28 08:15:30;;;;;;;13.85;2.20;;;;;;;13.18;58.97;102061.00;5071378;28;20113;-81
2022/05/28 08:17:55;;;;;;;15.18;2.10;;;;;;;13.20;59.68;102060.88;5068823;28;20099;-81
2022/05/28 08:23:08;;;;;;;10.55;2.75;;;;;;;13.28;59.76;102058.56;5076155;28;20017;-81
2022/05/28 08:23:09;;;;;;;5.28;1.83;;;;;;;13.37;60.45;102054.44;5069930;28;20490;-82
2022/05/28 08:25:34;;;;;;;16.30;3.33;;;;;;;13.45;59.92;102052.94;5071172;28;20024;-81
2022/05/28 08:28:00;;;;;;;10.85;2.33;;;;;;;13.59;60.64;102049.31;5071624;28;20036;-81
2022/05/28 08:30:25;;;;;;;11.88;2.35;;;;;;;13.71;59.26;102058.44;5051500;28;20025;-81
2022/05/28 08:32:50;;;;;;;12.20;2.30;;;;;;;13.79;59.30;102045.28;5051437;28;20048;-81
2022/05/28 08:35:15;;;;;;;10.60;2.60;;;;;;;13.89;57.47;102050.06;5050552;28;20074;-81
2022/05/28 08:37:41;;;;;;;8.35;1.80;;;;;;;13.96;57.96;102049.53;5054142;28;20394;-82
2022/05/28 08:40:06;;;;;;;6.20;2.05;;;;;;;14.07;60.36;102053.31;5068739;28;20024;-82
2022/05/28 08:42:32;;;;;;;15.32;2.63;;;;;;;14.12;57.49;102051.19;5069255;28;20409;-81
2022/05/28 08:45:03;;;;;;;10.43;2.22;;;;;;;14.17;57.62;102051.72;5066794;28;20063;-81
2022/05/28 08:47:33;;;;;;;6.63;2.30;;;;;;;14.24;56.71;102053.03;5069590;28;20047;-81
2022/05/28 08:49:58;;;;;;;15.10;2.53;;;;;;;14.32;57.47;102042.53;5071137;28;20032;-81
2022/05/28 08:52:47;;;;;;;11.95;2.80;;;;;;;14.40;57.20;102060.94;5068468;28;20032;-81
2022/05/28 08:55:16;;;;;;;13.15;2.22;;;;;;;14.39;55.74;102052.91;5069652;28;20511;-82
2022/05/28 08:58:03;;;;;;;7.85;1.85;;;;;;;14.42;58.21;102050.88;5070657;28;20039;-81
2022/05/28 09:00:45;;;;;;;14.57;2.80;;;;;;;14.42;55.82;102056.28;5050869;28;20127;-81
2022/05/28 09:03:15;;;;;;;12.57;2.75;;;;;;;14.39;56.74;102053.78;5069237;28;20062;-81
2022/05/28 09:05:50;;;;;;;14.15;2.60;;;;;;;14.38;57.48;102049.38;5070680;28;20017;-81
2022/05/28 09:08:28;;;;;;;6.57;2.10;;;;;;;14.32;57.02;102058.78;5064793;28;20025;-81
2022/05/28 09:10:56;;;;;;;16.00;2.63;;;;;;;14.27;56.59;102060.06;5065978;28;20083;-81
2022/05/28 09:13:31;;;;;;;10.75;2.45;;;;;;;14.23;57.02;102063.94;5067580;28;20055;-81
2022/05/28 09:15:59;;;;;;;12.10;2.22;;;;;;;14.15;57.66;102064.47;5063454;28;20040;-81
2022/05/28 09:18:38;;;;;;;13.90;2.35;;;;;;;14.13;57.90;102059.19;5072180;28;20051;-81
2022/05/28 09:21:05;;;;;;;6.82;2.28;;;;;;;14.21;59.09;102055.94;5067169;28;20016;-81
2022/05/28 09:23:41;;;;;;;8.27;2.30;;;;;;;14.31;59.15;102057.03;5070033;28;20028;-81
2022/05/28 09:26:06;;;;;;;15.85;3.35;;;;;;;14.40;58.38;102041.13;5067165;28;20013;-82
2022/05/28 09:28:39;;;;;;;9.63;2.40;;;;;;;14.49;56.73;102046.78;5065009;28;20035;-81
2022/05/28 09:31:28;;;;;;;7.65;1.50;;;;;;;14.62;57.60;102043.22;5070233;28;20404;-81
2022/05/28 09:34:22;;;;;;;9.95;2.55;;;;;;;14.74;57.54;102038.75;5045216;28;20137;-82
2022/05/28 09:37:05;;;;;;;14.27;3.17;;;;;;;14.83;55.36;102046.22;5066690;28;20107;-81
2022/05/28 09:39:56;;;;;;;10.00;2.45;;;;;;;14.85;56.87;102038.84;5067313;28;20169;-81
2022/05/28 09:42:42;;;;;;;18.65;3.40;;;;;;;14.84;55.70;102042.53;5061941;28;20029;-82
2022/05/28 09:45:46;;;;;;;12.32;2.38;;;;;;;14.86;57.90;102051.41;5070603;28;20100;-82
2022/05/28 09:48:20;;;;;;;12.07;2.55;;;;;;;14.80;55.06;102039.19;5049475;28;20219;-81
2022/05/28 09:50:45;;;;;;;12.82;2.50;;;;;;;14.75;55.21;102044.06;5056477;28;20071;-81
2022/05/28 09:55:58;;;;;;;9.50;2.28;;;;;;;14.79;53.52;102042.00;5074229;28;20035;-81
2022/05/28 09:58:28;;;;;;;13.48;2.72;;;;;;;14.93;57.18;102041.84;5073898;28;20104;-81
2022/05/28 10:01:05;;;;;;;15.75;2.67;;;;;;;14.96;55.10;102047.03;5069686;28;20021;-82
2022/05/28 10:06:22;;;;;;;9.32;1.85;;;;;;;15.05;54.75;102026.56;5058555;28;20071;-82
2022/05/28 10:08:47;;;;;;;16.02;2.85;;;;;;;15.17;54.13;102025.66;5059183;28;20032;-82
2022/05/28 10:11:19;;;;;;;8.85;2.22;;;;;;;15.32;59.29;102029.06;5063222;28;20029;-81
2022/05/28 10:13:48;;;;;;;10.48;2.85;;;;;;;15.34;54.60;102024.41;5052481;28;20029;-82
2022/05/28 10:16:17;;;;;;;7.60;2.30;;;;;;;15.32;54.29;102023.66;5053457;28;20093;-82
2022/05/28 10:18:53;;;;;;;13.70;2.95;;;;;;;15.17;55.17;102028.38;5064143;28;20033;-82
2022/05/28 10:21:26;;;;;;;7.78;2.25;;;;;;;15.13;54.83;102020.59;5053492;28;20024;-82
2022/05/28 10:23:57;;;;;;;7.60;2.13;;;;;;;15.16;53.38;102023.91;5053508;28;20025;-81
2022/05/28 10:26:31;;;;;;;7.15;2.13;;;;;;;15.35;53.80;102026.13;5054051;28;20074;-81
2022/05/28 10:29:06;;;;;;;12.65;2.30;;;;;;;15.50;53.30;102024.09;5053776;28;20110;-82
2022/05/28 10:31:36;;;;;;;11.35;2.45;;;;;;;15.53;52.90;102023.91;5067299;28;20082;-82
2022/05/28 10:34:02;;;;;;;10.57;2.40;;;;;;;15.49;51.77;102018.81;5074080;28;20030;-82
2022/05/28 10:36:31;;;;;;;9.65;2.55;;;;;;;15.40;50.13;102023.06;5072482;28;20050;-81
2022/05/28 10:39:08;;;;;;;6.78;1.77;;;;;;;15.30;49.87;102025.63;5071968;28;20052;-81
2022/05/28 10:41:35;;;;;;;11.98;2.40;;;;;;;15.14;48.11;102034.03;5072319;28;20048;-81
2022/05/28 10:44:00;;;;;;;11.60;2.40;;;;;;;15.11;46.77;102025.25;5072033;28;20039;-81
2022/05/28 10:46:32;;;;;;;7.63;2.38;;;;;;;15.21;48.72;102018.16;5068743;28;20025;-81
2022/05/28 10:49:16;;;;;;;8.45;2.35;;;;;;;15.33;47.30;102016.38;5079391;28;20028;-80
2022/05/28 10:51:59;;;;;;;7.03;1.98;;;;;;;15.44;48.12;102016.44;5093699;28;20032;-81
2022/05/28 10:54:33;;;;;;;7.93;2.05;;;;;;;15.61;48.29;102017.88;5093378;28;20032;-82
2022/05/28 10:57:18;;;;;;;11.25;1.98;;;;;;;15.62;46.86;102022.31;5093952;28;20395;-82
2022/05/28 11:00:02;;;;;;;8.15;1.92;;;;;;;15.64;47.01;102019.50;5060304;28;20029;-82
2022/05/28 11:02:31;;;;;;;7.72;2.10;;;;;;;15.71;50.63;102021.63;5053306;28;20075;-82
2022/05/28 11:05:11;;;;;;;7.22;2.08;;;;;;;15.78;48.39;102016.59;5051552;28;20082;-82
2022/05/28 11:08:00;;;;;;;9.80;2.20;;;;;;;15.89;48.19;102021.22;5053278;28;20108;-82
2022/05/28 11:10:55;;;;;;;7.75;2.05;;;;;;;15.89;48.24;102019.38;5051733;28;20044;-81
2022/05/28 11:13:46;;;;;;;11.40;2.17;;;;;;;15.76;45.35;102028.53;5061398;28;20457;-81
2022/05/28 11:16:40;;;;;;;12.38;2.88;;;;;;;15.57;48.60;102023.66;5071801;28;20099;-82
2022/05/28 11:19:21;;;;;;;7.85;2.28;;;;;;;15.59;50.44;102014.41;5081331;28;20099;-81
2022/05/28 11:22:23;;;;;;;10.00;2.08;;;;;;;15.71;51.30;102015.31;5085935;28;20031;-82
2022/05/28 11:25:04;;;;;;;6.43;1.55;;;;;;;15.86;49.79;102013.31;5051414;28;20053;-81
2022/05/28 11:27:51;;;;;;;7.18;1.83;;;;;;;15.95;46.52;102007.19;5050621;28;20369;-82
2022/05/28 11:30:30;;;;;;;7.18;1.90;;;;;;;16.02;45.83;102013.84;5067129;28;20029;-82
2022/05/28 11:33:34;;;;;;;6.53;1.98;;;;;;;15.95;44.49;101996.34;5052358;28;20461;-81
2022/05/28 11:36:08;;;;;;;9.23;2.08;;;;;;;16.00;45.97;102005.00;5062104;28;20028;-81
2022/05/28 11:38:41;;;;;;;9.05;1.88;;;;;;;16.05;45.50;102007.34;5054571;28;20110;-82
2022/05/28 11:41:24;;;;;;;7.95;1.98;;;;;;;16.18;47.19;102007.22;5056830;28;20025;-81